Time;durP1;ratioP1;P1;durP2;ratioP2;P2;SDS_P1;SDS_P2;PMS_P1;PMS_P2;Temp;Humidity;BMP_temperature;BMP_pressure;BME280_temperature;BME280_humidity;BME280_pressure;Samples;Min_cycle;Max_cycle;Signal;HPM_P1;HPM_P2
2021/11/23 00:01:26;;;;;;;11.77;5.60;;;;;;;1.90;100.00;100566.50;5098722;28;20047;-80
2021/11/23 00:04:10;;;;;;;11.35;4.95;;;;;;;1.93;100.00;100561.38;5098384;28;20044;-79
2021/11/23 00:06:54;;;;;;;12.98;5.07;;;;;;;1.92;100.00;100573.44;5098565;28;20040;-80
2021/11/23 00:09:39;;;;;;;12.93;5.53;;;;;;;1.93;100.00;100564.84;5098271;28;20036;-79
2021/11/23 00:12:24;;;;;;;11.73;5.68;;;;;;;1.89;100.00;100570.78;5098642;28;20089;-80
2021/11/23 00:15:08;;;;;;;10.82;5.65;;;;;;;1.94;100.00;100563.13;5097676;28;20044;-80
2021/11/23 00:17:53;;;;;;;12.30;4.82;;;;;;;1.98;100.00;100560.66;5097573;28;20044;-80
2021/11/23 00:20:40;;;;;;;11.43;4.70;;;;;;;1.92;100.00;100557.94;5097389;28;20035;-79
2021/11/23 00:23:24;;;;;;;11.27;5.07;;;;;;;1.87;100.00;100565.56;5097501;28;20078;-80
2021/11/23 00:26:09;;;;;;;14.13;5.35;;;;;;;1.86;100.00;100565.56;5098040;28;20040;-80
2021/11/23 00:28:53;;;;;;;11.50;5.13;;;;;;;1.83;100.00;100566.34;5097923;28;20056;-80
2021/11/23 00:31:37;;;;;;;7.88;4.43;;;;;;;1.69;100.00;100562.59;5097217;28;20040;-79
2021/11/23 00:34:24;;;;;;;8.63;4.60;;;;;;;1.76;100.00;100558.44;5097996;28;20425;-80
2021/11/23 00:37:09;;;;;;;8.73;4.25;;;;;;;1.87;100.00;100568.16;5098049;28;20040;-80
2021/11/23 00:39:56;;;;;;;7.57;3.83;;;;;;;1.74;100.00;100554.94;5097905;28;20042;-80
2021/11/23 00:42:42;;;;;;;6.80;3.47;;;;;;;1.79;100.00;100563.69;5096739;28;20040;-79
2021/11/23 00:45:26;;;;;;;6.75;4.15;;;;;;;1.81;100.00;100567.16;5097000;28;20064;-80
2021/11/23 00:48:11;;;;;;;9.63;3.90;;;;;;;1.72;100.00;100556.59;5097692;28;20048;-80
2021/11/23 00:50:55;;;;;;;9.40;5.05;;;;;;;1.63;100.00;100546.97;5097150;28;20118;-80
2021/11/23 00:53:40;;;;;;;11.57;5.80;;;;;;;1.52;100.00;100551.84;5097510;28;20052;-79
2021/11/23 00:56:24;;;;;;;12.40;5.78;;;;;;;1.54;100.00;100557.94;5096722;28;20111;-79
2021/11/23 00:59:08;;;;;;;11.85;6.38;;;;;;;1.49;100.00;100553.50;5096794;28;20044;-80
2021/11/23 01:01:52;;;;;;;8.98;4.45;;;;;;;1.33;100.00;100548.00;5097061;28;20056;-79
2021/11/23 01:04:36;;;;;;;10.50;4.50;;;;;;;1.32;100.00;100563.41;5096753;28;20039;-80
2021/11/23 01:07:21;;;;;;;10.57;4.65;;;;;;;1.24;100.00;100550.34;5097370;28;20040;-80
2021/11/23 01:10:07;;;;;;;12.57;6.63;;;;;;;1.25;100.00;100546.91;5082407;28;20398;-80
2021/11/23 01:12:52;;;;;;;10.98;5.43;;;;;;;1.17;100.00;100551.91;5097329;28;20043;-80
2021/11/23 01:15:36;;;;;;;9.90;4.45;;;;;;;1.07;100.00;100554.19;5097324;28;20040;-79
2021/11/23 01:18:20;;;;;;;7.55;4.43;;;;;;;0.93;100.00;100565.03;5097214;28;20043;-79
2021/11/23 01:21:06;;;;;;;9.23;5.13;;;;;;;0.84;100.00;100549.31;5097625;28;20044;-79
2021/11/23 01:23:50;;;;;;;10.30;4.53;;;;;;;0.77;100.00;100555.16;5082053;28;20044;-79
2021/11/23 01:26:34;;;;;;;8.35;4.57;;;;;;;0.67;100.00;100550.59;5096249;28;20047;-80
2021/11/23 01:29:19;;;;;;;10.70;5.13;;;;;;;0.57;100.00;100553.75;5096262;28;20112;-79
2021/11/23 01:32:04;;;;;;;11.30;5.50;;;;;;;0.45;100.00;100547.41;5097052;28;20051;-79
2021/11/23 01:34:49;;;;;;;11.85;5.85;;;;;;;0.32;100.00;100549.63;5096256;28;20074;-79
2021/11/23 01:37:34;;;;;;;8.38;4.45;;;;;;;0.32;100.00;100554.78;5096736;28;20040;-79
2021/11/23 01:40:18;;;;;;;7.65;4.20;;;;;;;0.25;100.00;100553.72;5096633;28;20491;-79
2021/11/23 01:43:05;;;;;;;7.57;4.63;;;;;;;0.17;100.00;100560.38;5096165;28;20044;-79
2021/11/23 01:45:50;;;;;;;9.35;4.18;;;;;;;0.05;100.00;100545.44;5097027;28;20412;-79
2021/11/23 01:48:35;;;;;;;8.18;3.92;;;;;;;-0.10;100.00;100534.66;5096427;28;20040;-79
2021/11/23 01:51:19;;;;;;;6.90;3.60;;;;;;;-0.08;100.00;100548.47;5096659;28;20044;-80
2021/11/23 01:54:03;;;;;;;7.35;3.38;;;;;;;-0.15;100.00;100547.44;5095874;28;20040;-80
2021/11/23 01:56:48;;;;;;;6.95;3.92;;;;;;;-0.27;100.00;100544.47;5095767;28;20040;-80
2021/11/23 01:59:33;;;;;;;7.00;3.88;;;;;;;-0.33;100.00;100547.72;5096298;28;20051;-80
2021/11/23 02:02:17;;;;;;;6.72;3.92;;;;;;;-0.32;100.00;100558.94;5095734;28;20425;-80
2021/11/23 02:05:01;;;;;;;6.13;3.20;;;;;;;-0.44;100.00;100551.69;5095913;28;20093;-79
2021/11/23 02:07:45;;;;;;;8.73;3.92;;;;;;;-0.50;100.00;100566.94;5081452;28;20047;-80
2021/11/23 02:10:30;;;;;;;8.30;3.78;;;;;;;-0.56;100.00;100561.59;5096317;28;20109;-80
2021/11/23 02:13:14;;;;;;;6.15;3.50;;;;;;;-0.59;100.00;100557.22;5081320;28;20040;-79
2021/11/23 02:15:59;;;;;;;7.43;3.15;;;;;;;-0.67;100.00;100557.81;5096557;28;20040;-79
2021/11/23 02:18:44;;;;;;;7.18;3.47;;;;;;;-0.69;100.00;100564.59;5096323;28;20047;-79
2021/11/23 02:21:29;;;;;;;7.85;2.85;;;;;;;-0.75;100.00;100571.31;5095559;28;20445;-79
2021/11/23 02:24:14;;;;;;;5.70;3.35;;;;;;;-0.82;100.00;100577.06;5096482;28;20119;-79
2021/11/23 02:27:01;;;;;;;8.23;4.00;;;;;;;-0.88;100.00;100569.13;5081330;28;20322;-80
2021/11/23 02:29:45;;;;;;;6.40;3.53;;;;;;;-0.91;100.00;100586.16;5095340;28;20090;-79
2021/11/23 02:32:56;;;;;;;7.22;3.72;;;;;;;-1.05;100.00;100578.84;5095239;28;20044;-79
2021/11/23 02:35:40;;;;;;;9.25;4.10;;;;;;;-1.10;100.00;100593.28;5095445;28;20051;-79
2021/11/23 02:38:25;;;;;;;7.50;3.42;;;;;;;-1.10;100.00;100593.28;5095381;28;20044;-79
2021/11/23 02:41:12;;;;;;;7.00;3.38;;;;;;;-1.10;100.00;100590.72;5095369;28;20067;-79
2021/11/23 02:43:56;;;;;;;5.78;2.92;;;;;;;-1.14;100.00;100590.53;5095970;28;20113;-79
2021/11/23 02:46:41;;;;;;;6.22;3.38;;;;;;;-1.20;100.00;100588.66;5095289;28;20097;-79
2021/11/23 02:49:26;;;;;;;8.85;3.33;;;;;;;-1.22;100.00;100588.56;5095083;28;20040;-79
2021/11/23 02:52:11;;;;;;;6.53;2.78;;;;;;;-1.21;100.00;100580.03;5095399;28;20443;-79
2021/11/23 02:55:00;;;;;;;4.65;2.65;;;;;;;-1.23;100.00;100580.81;5095187;28;20078;-79
2021/11/23 02:57:45;;;;;;;8.15;3.78;;;;;;;-1.31;100.00;100585.69;5096094;28;20044;-79
2021/11/23 03:00:30;;;;;;;7.18;3.88;;;;;;;-1.36;100.00;100586.34;5095602;28;20048;-79
2021/11/23 03:03:14;;;;;;;6.57;3.58;;;;;;;-1.38;100.00;100588.00;5095153;28;20040;-79
2021/11/23 03:05:59;;;;;;;8.90;3.38;;;;;;;-1.41;100.00;100588.75;5098137;28;20044;-79
2021/11/23 03:08:45;;;;;;;5.95;2.97;;;;;;;-1.47;100.00;100585.97;5099506;28;20420;-79
2021/11/23 03:11:29;;;;;;;6.68;3.53;;;;;;;-1.45;100.00;100586.91;5099468;28;20040;-79
2021/11/23 03:14:14;;;;;;;7.55;3.65;;;;;;;-1.49;100.00;100590.19;5099572;28;20044;-79
2021/11/23 03:16:59;;;;;;;6.57;3.45;;;;;;;-1.57;100.00;100587.31;5098854;28;20043;-79
2021/11/23 03:19:45;;;;;;;7.57;3.40;;;;;;;-1.60;100.00;100581.19;5098610;28;20040;-78
2021/11/23 03:22:29;;;;;;;7.68;3.25;;;;;;;-1.69;100.00;100576.59;5098712;28;20051;-79
2021/11/23 03:25:15;;;;;;;6.03;3.00;;;;;;;-1.72;100.00;100587.66;5099257;28;20169;-78
2021/11/23 03:27:59;;;;;;;6.70;2.78;;;;;;;-1.70;100.00;100587.69;5098397;28;20433;-78
2021/11/23 03:30:43;;;;;;;7.15;2.70;;;;;;;-1.74;100.00;100590.97;5084254;28;20351;-78
2021/11/23 03:33:28;;;;;;;5.22;2.75;;;;;;;-1.74;100.00;100585.84;5099198;28;20044;-78
2021/11/23 03:36:13;;;;;;;5.82;3.05;;;;;;;-1.79;100.00;100589.91;5099088;28;20115;-78
2021/11/23 03:38:58;;;;;;;4.70;2.92;;;;;;;-1.88;100.00;100587.91;5098713;28;20098;-78
2021/11/23 03:41:42;;;;;;;10.02;3.20;;;;;;;-1.91;100.00;100585.22;5099013;28;20435;-78
2021/11/23 03:44:27;;;;;;;5.55;2.72;;;;;;;-1.95;100.00;100585.91;5098095;28;20447;-78
2021/11/23 03:47:13;;;;;;;5.57;2.67;;;;;;;-1.96;100.00;100582.47;5083777;28;20063;-78
2021/11/23 03:49:58;;;;;;;7.07;2.97;;;;;;;-2.05;100.00;100578.69;5098889;28;20105;-78
2021/11/23 03:52:43;;;;;;;7.03;3.28;;;;;;;-2.11;100.00;100571.63;5097962;28;20044;-78
2021/11/23 03:55:31;;;;;;;8.85;3.97;;;;;;;-2.10;100.00;100575.06;5098701;28;20044;-78
2021/11/23 03:58:15;;;;;;;6.70;3.25;;;;;;;-2.15;100.00;100573.19;5098871;28;20190;-78
2021/11/23 04:00:59;;;;;;;8.25;3.83;;;;;;;-2.17;100.00;100579.09;5097907;28;20074;-78
2021/11/23 04:03:43;;;;;;;8.27;4.20;;;;;;;-2.21;100.00;100574.66;5097751;28;20035;-78
2021/11/23 04:06:28;;;;;;;7.78;3.00;;;;;;;-2.20;100.00;100579.84;5098386;28;20040;-78
2021/11/23 04:09:12;;;;;;;8.55;3.03;;;;;;;-2.24;100.00;100571.94;5097714;28;20036;-78
2021/11/23 04:11:57;;;;;;;5.53;3.10;;;;;;;-2.26;100.00;100582.19;5098402;28;20044;-77
2021/11/23 04:14:41;;;;;;;7.70;3.20;;;;;;;-2.30;100.00;100569.19;5098208;28;20123;-77
2021/11/23 04:17:26;;;;;;;7.07;3.33;;;;;;;-2.36;100.00;100567.25;5097623;28;20048;-77
2021/11/23 04:20:10;;;;;;;7.70;3.20;;;;;;;-2.35;100.00;100564.72;5098362;28;20044;-77
2021/11/23 04:22:55;;;;;;;8.15;3.53;;;;;;;-2.34;100.00;100557.91;5098433;28;20368;-77
2021/11/23 04:25:39;;;;;;;9.07;4.05;;;;;;;-2.35;100.00;100561.28;5083100;28;20040;-77
2021/11/23 04:28:23;;;;;;;5.40;3.08;;;;;;;-2.36;100.00;100552.72;5097312;28;20040;-77
2021/11/23 04:31:07;;;;;;;6.82;3.40;;;;;;;-2.34;100.00;100563.03;5097958;28;20044;-77
2021/11/23 04:33:54;;;;;;;9.43;3.85;;;;;;;-2.33;100.00;100566.50;5098061;28;20047;-77
2021/11/23 04:36:39;;;;;;;5.82;3.08;;;;;;;-2.36;100.00;100549.28;5097784;28;20040;-78
2021/11/23 04:39:23;;;;;;;7.00;3.45;;;;;;;-2.38;100.00;100545.78;5097395;28;20094;-78
2021/11/23 04:42:07;;;;;;;9.07;4.47;;;;;;;-2.35;100.00;100553.59;5098010;28;20036;-78
2021/11/23 04:44:52;;;;;;;12.07;5.10;;;;;;;-2.37;100.00;100544.97;5098114;28;20040;-77
2021/11/23 04:47:36;;;;;;;21.95;8.60;;;;;;;-2.42;100.00;100538.78;5097830;28;20036;-77
2021/11/23 04:50:21;;;;;;;19.33;9.82;;;;;;;-2.33;100.00;100551.09;5097726;28;20085;-77
2021/11/23 04:53:05;;;;;;;18.67;8.40;;;;;;;-2.37;100.00;100555.25;5097510;28;20040;-77
2021/11/23 04:55:51;;;;;;;16.73;6.43;;;;;;;-2.35;100.00;100556.16;5097496;28;20191;-77
2021/11/23 04:58:36;;;;;;;5.15;3.55;;;;;;;-2.40;100.00;100550.00;5097366;28;20044;-77
2021/11/23 05:01:20;;;;;;;9.00;3.78;;;;;;;-2.38;100.00;100546.63;5096592;28;20044;-77
2021/11/23 05:04:05;;;;;;;7.50;3.42;;;;;;;-2.40;100.00;100540.59;5097292;28;20044;-77
2021/11/23 05:06:49;;;;;;;6.38;2.85;;;;;;;-2.45;100.00;100548.91;5097328;28;20048;-77
2021/11/23 05:09:34;;;;;;;7.88;3.80;;;;;;;-2.45;100.00;100548.91;5096323;28;20044;-77
2021/11/23 05:12:18;;;;;;;9.57;2.90;;;;;;;-2.40;100.00;100542.28;5096468;28;20390;-77
2021/11/23 05:15:04;;;;;;;5.03;2.53;;;;;;;-2.47;100.00;100546.31;5097432;28;20036;-77
2021/11/23 05:17:48;;;;;;;5.93;2.67;;;;;;;-2.51;100.00;100546.97;5097255;28;20040;-77
2021/11/23 05:20:32;;;;;;;9.13;3.20;;;;;;;-2.53;100.00;100548.63;5096212;28;20044;-77
2021/11/23 05:23:16;;;;;;;10.35;3.40;;;;;;;-2.52;100.00;100547.81;5096288;28;20436;-77
2021/11/23 05:26:00;;;;;;;8.13;3.97;;;;;;;-2.52;100.00;100549.50;5096968;28;20412;-77
2021/11/23 05:28:45;;;;;;;7.38;3.42;;;;;;;-2.59;100.00;100538.13;5095908;28;20047;-77
2021/11/23 05:31:30;;;;;;;7.95;3.67;;;;;;;-2.54;100.00;100539.16;5096988;28;20126;-77
2021/11/23 05:34:15;;;;;;;5.40;3.05;;;;;;;-2.53;100.00;100532.38;5096842;28;20055;-77
2021/11/23 05:36:59;;;;;;;11.30;3.70;;;;;;;-2.55;100.00;100526.28;5096881;28;20044;-77
2021/11/23 05:39:44;;;;;;;7.90;4.00;;;;;;;-2.53;100.00;100527.25;5097053;28;20044;-77
2021/11/23 05:42:28;;;;;;;8.40;3.53;;;;;;;-2.58;100.00;100524.47;5096035;28;20040;-77
2021/11/23 05:45:13;;;;;;;11.02;4.80;;;;;;;-2.58;100.00;100530.47;5097148;28;20043;-77
2021/11/23 05:47:57;;;;;;;7.72;4.28;;;;;;;-2.60;100.00;100521.88;5096932;28;20051;-77
2021/11/23 05:50:42;;;;;;;8.43;4.22;;;;;;;-2.61;100.00;100517.53;5095795;28;20044;-77
2021/11/23 05:53:26;;;;;;;6.13;3.47;;;;;;;-2.54;100.00;100518.63;5096491;28;20044;-77
2021/11/23 05:56:11;;;;;;;7.68;4.40;;;;;;;-2.55;100.00;100514.34;5096722;28;20044;-77
2021/11/23 05:58:55;;;;;;;7.10;4.13;;;;;;;-2.56;100.00;100499.78;5096466;28;20036;-77
2021/11/23 06:01:39;;;;;;;7.57;4.53;;;;;;;-2.52;100.00;100491.38;5096371;28;20040;-77
2021/11/23 06:04:23;;;;;;;8.95;4.72;;;;;;;-2.53;100.00;100493.88;5096498;28;20048;-77
2021/11/23 06:07:08;;;;;;;5.90;3.63;;;;;;;-2.53;100.00;100496.47;5096465;28;20348;-77
2021/11/23 06:09:52;;;;;;;8.95;4.40;;;;;;;-2.55;100.00;100514.34;5095832;28;20036;-77
2021/11/23 06:12:36;;;;;;;10.55;4.63;;;;;;;-2.55;100.00;100508.34;5095737;28;20379;-77
2021/11/23 06:15:21;;;;;;;8.70;4.03;;;;;;;-2.58;100.00;100514.22;5096515;28;20429;-77
2021/11/23 06:18:08;;;;;;;14.88;4.70;;;;;;;-2.59;100.00;100504.78;5082131;28;20052;-77
2021/11/23 06:20:56;;;;;;;9.23;4.57;;;;;;;-2.54;100.00;100513.50;5095346;28;20111;-76
2021/11/23 06:23:40;;;;;;;9.05;4.70;;;;;;;-2.58;100.00;100504.81;5095676;28;20044;-74
2021/11/23 06:26:24;;;;;;;8.20;4.68;;;;;;;-2.55;100.00;100506.63;5079429;28;20055;-74
2021/11/23 06:29:09;;;;;;;8.73;4.45;;;;;;;-2.58;100.00;100514.22;5094256;28;20119;-74
2021/11/23 06:31:53;;;;;;;12.85;4.80;;;;;;;-2.58;100.00;100509.94;5093830;28;20047;-74
2021/11/23 06:34:38;;;;;;;10.25;5.57;;;;;;;-2.55;100.00;100511.78;5093509;28;20044;-74
2021/11/23 06:37:23;;;;;;;11.93;5.28;;;;;;;-2.54;100.00;100518.63;5094332;28;20032;-74
2021/11/23 06:40:09;;;;;;;16.00;8.55;;;;;;;-2.58;100.00;100520.22;5094352;28;20054;-74
2021/11/23 06:42:54;;;;;;;26.70;13.60;;;;;;;-2.52;100.00;100521.28;5097941;28;20126;-74
2021/11/23 06:45:39;;;;;;;68.35;32.60;;;;;;;-2.48;100.00;100513.75;5098345;28;20035;-74
2021/11/23 06:48:23;;;;;;;63.03;30.13;;;;;;;-2.46;100.00;100511.25;5102126;28;20036;-74
2021/11/23 06:51:08;;;;;;;45.40;23.70;;;;;;;-2.41;100.00;100512.28;5099006;28;20040;-74
2021/11/23 06:53:52;;;;;;;29.63;13.85;;;;;;;-2.34;100.00;100504.00;5083626;28;20050;-74
2021/11/23 06:56:38;;;;;;;15.90;7.10;;;;;;;-2.33;100.00;100492.06;5099024;28;20134;-74
2021/11/23 06:59:23;;;;;;;12.50;5.97;;;;;;;-2.23;100.00;100514.69;5098229;28;20059;-74
2021/11/23 07:02:07;;;;;;;13.77;5.57;;;;;;;-2.12;100.00;100514.25;5102233;28;20065;-74
2021/11/23 07:04:51;;;;;;;13.88;5.90;;;;;;;-2.05;100.00;100524.75;5100172;28;20055;-74
2021/11/23 07:07:35;;;;;;;15.18;7.47;;;;;;;-2.02;100.00;100525.75;5100807;28;20409;-74
2021/11/23 07:10:20;;;;;;;13.95;6.90;;;;;;;-1.95;100.00;100527.75;5098497;28;20043;-74
2021/11/23 07:13:04;;;;;;;11.32;6.68;;;;;;;-1.87;100.00;100528.00;5098074;28;20044;-74
2021/11/23 07:15:48;;;;;;;18.80;8.05;;;;;;;-1.74;100.00;100532.78;5097988;28;20425;-75
2021/11/23 07:18:33;;;;;;;17.30;10.32;;;;;;;-1.68;100.00;100534.69;5097903;28;20040;-74
2021/11/23 07:21:17;;;;;;;21.90;10.10;;;;;;;-1.52;100.00;100524.13;5082674;28;20036;-75
2021/11/23 07:24:02;;;;;;;17.00;9.02;;;;;;;-1.35;100.00;100529.84;5097380;28;20036;-75
2021/11/23 07:26:48;;;;;;;14.10;8.10;;;;;;;-1.12;100.00;100532.31;5100043;28;20055;-75
2021/11/23 07:29:32;;;;;;;15.32;7.68;;;;;;;-1.01;100.00;100534.44;5098990;28;20043;-75
2021/11/23 07:32:16;;;;;;;13.90;7.43;;;;;;;-0.87;100.00;100523.72;5099331;28;20040;-75
2021/11/23 07:35:02;;;;;;;16.35;6.80;;;;;;;-0.87;100.00;100526.31;5099184;28;20044;-75
2021/11/23 07:37:47;;;;;;;12.45;6.65;;;;;;;-0.90;100.00;100521.94;5099197;28;20040;-74
2021/11/23 07:40:31;;;;;;;9.68;5.30;;;;;;;-0.65;100.00;100515.88;5098056;28;20036;-75
2021/11/23 07:43:15;;;;;;;9.90;4.75;;;;;;;-0.47;100.00;100524.16;5082500;28;20364;-75
2021/11/23 07:46:00;;;;;;;9.25;4.85;;;;;;;-0.11;100.00;100515.78;5082295;28;20043;-74
2021/11/23 07:48:45;;;;;;;10.00;5.20;;;;;;;-0.14;100.00;100517.38;5100127;28;20032;-74
2021/11/23 07:51:30;;;;;;;8.27;4.32;;;;;;;0.10;100.00;100518.13;5082942;28;20089;-75
2021/11/23 07:54:14;;;;;;;8.07;4.57;;;;;;;0.39;100.00;100516.34;5096587;28;20040;-75
2021/11/23 07:56:59;;;;;;;12.25;6.32;;;;;;;0.70;100.00;100525.75;5083181;28;20040;-75
2021/11/23 07:59:43;;;;;;;11.80;6.47;;;;;;;0.79;100.00;100527.72;5098755;28;20143;-75
2021/11/23 08:02:28;;;;;;;11.40;5.72;;;;;;;0.86;100.00;100524.44;5068380;28;20559;-74
2021/11/23 08:05:12;;;;;;;9.98;6.30;;;;;;;0.81;100.00;100520.00;5096553;28;20056;-75
2021/11/23 08:07:56;;;;;;;8.10;4.50;;;;;;;0.98;100.00;100518.72;5095928;28;20093;-75
2021/11/23 08:10:42;;;;;;;8.13;4.22;;;;;;;1.08;100.00;100512.97;5095944;28;20056;-75
2021/11/23 08:13:27;;;;;;;7.53;4.55;;;;;;;1.16;100.00;100519.16;5095838;28;20428;-75
2021/11/23 08:16:11;;;;;;;8.43;4.63;;;;;;;1.26;100.00;100521.97;5096069;28;20043;-76
2021/11/23 08:18:55;;;;;;;8.77;4.10;;;;;;;1.44;100.00;100517.25;5097811;28;20105;-75
2021/11/23 08:21:39;;;;;;;9.15;4.50;;;;;;;1.53;100.00;100517.47;5098289;28;20044;-75
2021/11/23 08:24:24;;;;;;;8.27;4.30;;;;;;;1.58;100.00;100499.47;5097436;28;20051;-75
2021/11/23 08:27:08;;;;;;;8.02;3.65;;;;;;;1.82;100.00;100518.13;5098225;28;20040;-75
2021/11/23 08:29:53;;;;;;;8.40;3.90;;;;;;;2.09;99.39;100512.66;5097969;28;20032;-75
2021/11/23 08:32:37;;;;;;;8.32;4.28;;;;;;;2.07;97.62;100516.91;5097271;28;20036;-76
2021/11/23 08:35:22;;;;;;;11.27;4.60;;;;;;;2.25;99.07;100520.72;5098589;28;20043;-76
2021/11/23 08:38:06;;;;;;;8.23;4.18;;;;;;;2.59;98.26;100517.03;5098476;28;20127;-76
2021/11/23 08:40:51;;;;;;;6.53;3.53;;;;;;;2.56;96.65;100516.97;5097936;28;20048;-76
2021/11/23 08:43:35;;;;;;;10.77;5.43;;;;;;;2.77;95.75;100514.81;5098369;28;20052;-76
2021/11/23 08:46:20;;;;;;;9.35;5.95;;;;;;;3.43;93.52;100512.41;5098357;28;20040;-76
2021/11/23 08:49:04;;;;;;;9.32;4.35;;;;;;;2.87;94.98;100522.72;5098231;28;20409;-76
2021/11/23 08:51:51;;;;;;;9.65;5.05;;;;;;;2.79;95.55;100522.56;5097973;28;20040;-76
2021/11/23 08:54:35;;;;;;;53.35;26.08;;;;;;;3.39;93.79;100529.63;5098128;28;20040;-76
2021/11/23 08:57:20;;;;;;;12.65;7.63;;;;;;;3.69;92.88;100533.53;5097609;28;20440;-76
2021/11/23 09:03:01;;;;;;;24.40;11.38;;;;;;;2.96;95.25;100523.75;5096544;28;20359;-76
2021/11/23 09:05:45;;;;;;;11.73;4.13;;;;;;;2.73;97.19;100523.34;5096691;28;20367;-76
2021/11/23 09:08:31;;;;;;;11.20;6.30;;;;;;;2.75;97.89;100523.38;5097307;28;20040;-76
2021/11/23 09:11:17;;;;;;;40.67;27.75;;;;;;;2.90;98.03;100525.38;5097702;28;20131;-76
2021/11/23 09:14:02;;;;;;;26.98;18.48;;;;;;;2.67;99.44;100519.78;5097605;28;20040;-76
2021/11/23 09:16:46;;;;;;;26.58;11.63;;;;;;;2.67;99.65;100519.78;5096802;28;20101;-76
2021/11/23 09:19:31;;;;;;;22.05;11.07;;;;;;;2.49;100.00;100525.47;5097071;28;20360;-76
2021/11/23 09:22:15;;;;;;;20.60;9.80;;;;;;;2.26;100.00;100512.97;5097010;28;20421;-76
2021/11/23 09:25:00;;;;;;;14.65;7.28;;;;;;;2.34;100.00;100518.31;5082089;28;20047;-76
2021/11/23 09:27:44;;;;;;;11.07;6.03;;;;;;;2.35;100.00;100514.88;5097190;28;20036;-76
2021/11/23 09:30:30;;;;;;;18.25;6.97;;;;;;;2.32;100.00;100512.22;5096563;28;20047;-78
2021/11/23 09:33:15;;;;;;;10.05;3.85;;;;;;;1.99;100.00;100518.47;5097780;28;20081;-76
2021/11/23 09:35:59;;;;;;;8.25;3.80;;;;;;;1.99;100.00;100523.63;5095195;28;20040;-76
2021/11/23 09:38:44;;;;;;;32.00;9.65;;;;;;;2.23;100.00;100518.09;5080654;28;20335;-76
2021/11/23 09:41:29;;;;;;;22.48;10.60;;;;;;;2.24;100.00;100514.69;5096658;28;20447;-76
2021/11/23 09:44:13;;;;;;;59.95;17.92;;;;;;;1.93;100.00;100507.13;5080603;28;20036;-76
2021/11/23 09:46:58;;;;;;;18.23;7.22;;;;;;;2.04;100.00;100505.63;5097275;28;20044;-76
2021/11/23 09:49:42;;;;;;;27.20;9.65;;;;;;;2.17;100.00;100511.91;5096135;28;20139;-76
2021/11/23 09:52:27;;;;;;;13.63;5.70;;;;;;;2.35;100.00;100512.28;5097190;28;20036;-76
2021/11/23 09:55:14;;;;;;;14.82;5.78;;;;;;;2.19;100.00;100510.25;5095249;28;20042;-76
2021/11/23 09:57:58;;;;;;;16.13;6.20;;;;;;;2.18;100.00;100508.47;5094961;28;20051;-76
2021/11/23 10:00:46;;;;;;;38.95;20.33;;;;;;;2.24;100.00;100506.91;5094606;28;20093;-76
2021/11/23 10:03:33;;;;;;;46.92;15.90;;;;;;;2.13;100.00;100511.00;5093918;28;20059;-76
2021/11/23 10:06:20;;;;;;;17.58;7.20;;;;;;;2.12;100.00;100501.50;5079286;28;20444;-76
2021/11/23 10:09:05;;;;;;;14.82;5.55;;;;;;;2.07;100.00;100500.53;5079335;28;20117;-76
2021/11/23 10:11:49;;;;;;;13.48;6.43;;;;;;;2.12;100.00;100498.03;5095513;28;20036;-76
2021/11/23 10:14:35;;;;;;;14.23;6.15;;;;;;;2.02;100.00;100489.25;5095362;28;20040;-76
2021/11/23 10:17:25;;;;;;;13.57;5.53;;;;;;;2.05;100.00;100497.06;5096465;28;20115;-76
2021/11/23 10:20:28;;;;;;;9.85;4.53;;;;;;;2.04;100.00;100493.56;5096364;28;20040;-76
2021/11/23 10:23:21;;;;;;;12.45;4.85;;;;;;;2.17;100.00;100499.84;5096367;28;20126;-76
2021/11/23 10:26:11;;;;;;;9.38;4.30;;;;;;;2.09;100.00;100506.59;5096678;28;20044;-76
2021/11/23 10:29:02;;;;;;;10.57;4.72;;;;;;;2.07;100.00;100516.91;5096835;28;20040;-76
2021/11/23 10:31:48;;;;;;;13.80;6.25;;;;;;;1.96;100.00;100520.97;5081571;28;20125;-76
2021/11/23 10:34:34;;;;;;;23.33;10.13;;;;;;;2.01;100.00;100527.09;5095553;28;20055;-76
2021/11/23 10:37:32;;;;;;;19.30;7.07;;;;;;;1.92;100.00;100528.63;5095533;28;20425;-76
2021/11/23 10:40:18;;;;;;;15.35;6.88;;;;;;;2.05;100.00;100528.94;5096199;28;20070;-76
2021/11/23 10:43:06;;;;;;;11.50;6.18;;;;;;;1.87;100.00;100526.81;5096269;28;20044;-76
2021/11/23 10:45:53;;;;;;;20.73;9.10;;;;;;;1.94;100.00;100521.78;5096021;28;20036;-76
2021/11/23 10:48:37;;;;;;;13.32;7.38;;;;;;;2.04;100.00;100516.81;5096187;28;20051;-76
2021/11/23 10:51:23;;;;;;;15.93;8.02;;;;;;;2.02;100.00;100515.94;5081573;28;20036;-76
2021/11/23 10:54:13;;;;;;;19.58;9.05;;;;;;;1.98;100.00;100521.00;5081586;28;20040;-76
2021/11/23 10:57:01;;;;;;;15.68;7.35;;;;;;;2.09;100.00;100516.94;5095773;28;20456;-76
2021/11/23 10:59:46;;;;;;;13.65;7.13;;;;;;;1.96;100.00;100523.56;5095384;28;20051;-76
2021/11/23 11:02:32;;;;;;;12.13;6.32;;;;;;;1.99;100.00;100520.19;5095778;28;20072;-76
2021/11/23 11:05:16;;;;;;;18.60;7.85;;;;;;;2.04;100.00;100513.38;5095188;28;20390;-76
2021/11/23 11:08:01;;;;;;;13.82;6.13;;;;;;;2.02;100.00;100508.19;5095480;28;20507;-76
2021/11/23 11:10:48;;;;;;;36.03;14.02;;;;;;;2.18;100.00;100500.72;5095845;28;20051;-76
2021/11/23 11:13:33;;;;;;;24.17;10.70;;;;;;;2.17;100.00;100502.44;5094893;28;20097;-76
2021/11/23 11:16:20;;;;;;;34.05;13.82;;;;;;;2.20;100.00;100499.91;5095539;28;20040;-76
2021/11/23 11:19:10;;;;;;;19.98;9.20;;;;;;;2.39;100.00;100505.47;5095675;28;20064;-76
2021/11/23 11:21:54;;;;;;;31.05;13.05;;;;;;;2.22;100.00;100505.13;5094882;28;20051;-76
2021/11/23 11:27:33;;;;;;;14.07;7.93;;;;;;;2.19;100.00;100505.06;5096262;28;20040;-76
2021/11/23 11:30:34;;;;;;;14.70;7.72;;;;;;;2.26;100.00;100502.63;5097958;28;20040;-76
2021/11/23 11:33:23;;;;;;;12.20;6.53;;;;;;;2.18;100.00;100504.22;5083199;28;20340;-76
2021/11/23 11:36:07;;;;;;;15.32;6.75;;;;;;;2.19;100.00;100503.34;5097401;28;20048;-76
2021/11/23 11:38:52;;;;;;;9.95;6.40;;;;;;;2.37;100.00;100509.72;5096535;28;20052;-76
2021/11/23 11:41:39;;;;;;;15.48;9.50;;;;;;;2.49;100.00;100505.66;5097502;28;20036;-76
2021/11/23 11:44:37;;;;;;;18.45;10.52;;;;;;;2.46;100.00;100502.16;5096487;28;20093;-76
2021/11/23 11:47:32;;;;;;;23.88;12.75;;;;;;;2.47;100.00;100498.72;5083138;28;20452;-76
2021/11/23 11:50:23;;;;;;;14.63;10.10;;;;;;;2.45;100.00;100500.41;5082910;28;20425;-76
2021/11/23 11:53:10;;;;;;;19.00;9.02;;;;;;;2.44;100.00;100502.13;5083255;28;20044;-76
2021/11/23 11:55:55;;;;;;;20.40;9.38;;;;;;;2.49;100.00;100497.91;5084486;28;20040;-76
2021/11/23 11:58:56;;;;;;;31.77;12.85;;;;;;;2.47;100.00;100498.72;5098794;28;20044;-76
2021/11/23 12:01:49;;;;;;;25.13;12.02;;;;;;;2.44;100.00;100496.97;5097956;28;20055;-76
2021/11/23 12:04:58;;;;;;;22.47;12.03;;;;;;;2.51;100.00;100492.78;5098636;28;20036;-76
2021/11/23 12:07:45;;;;;;;19.98;8.93;;;;;;;2.53;100.00;100484.16;5097739;28;20294;-76
2021/11/23 12:10:33;;;;;;;21.77;13.48;;;;;;;2.57;100.00;100479.94;5098342;28;20044;-76
2021/11/23 12:13:30;;;;;;;21.35;11.60;;;;;;;2.67;100.00;100479.28;5099059;28;20040;-76
2021/11/23 12:16:27;;;;;;;15.55;9.48;;;;;;;2.72;100.00;100479.34;5098153;28;20127;-76
2021/11/23 12:19:25;;;;;;;32.30;15.80;;;;;;;2.77;100.00;100475.13;5098343;28;20044;-76
2021/11/23 12:22:26;;;;;;;19.13;11.55;;;;;;;2.74;100.00;100469.91;5097940;28;20123;-76
2021/11/23 12:25:12;;;;;;;25.40;12.95;;;;;;;2.65;100.00;100475.78;5098288;28;20040;-76
2021/11/23 12:28:08;;;;;;;54.03;33.17;;;;;;;2.83;100.00;100480.41;5083181;28;20059;-76
2021/11/23 12:30:53;;;;;;;15.15;9.88;;;;;;;2.91;100.00;100477.94;5098046;28;20048;-76
2021/11/23 12:33:48;;;;;;;14.43;8.27;;;;;;;2.95;100.00;100477.13;5097666;28;20085;-76
2021/11/23 12:36:55;;;;;;;11.57;7.68;;;;;;;2.96;100.00;100474.59;5098031;28;20036;-76
2021/11/23 12:39:39;;;;;;;12.40;7.82;;;;;;;3.07;100.00;100477.34;5097540;28;20450;-76
2021/11/23 12:42:24;;;;;;;12.55;7.25;;;;;;;2.97;100.00;100484.09;5097772;28;20078;-76
2021/11/23 12:45:09;;;;;;;11.90;8.00;;;;;;;3.08;100.00;100478.22;5097910;28;20055;-76
2021/11/23 12:47:53;;;;;;;15.80;8.07;;;;;;;3.14;100.00;100478.31;5097758;28;20047;-76